createdAt,value
2022-12-11T00:01:13.425Z,1.10
2022-12-11T00:03:43.953Z,1.00
2022-12-11T00:06:17.890Z,0.60
2022-12-11T00:08:47.893Z,0.70
2022-12-11T00:11:18.450Z,0.53
2022-12-11T00:13:50.133Z,0.70
2022-12-11T00:16:26.756Z,0.80
2022-12-11T00:18:57.633Z,0.63
2022-12-11T00:21:27.873Z,0.90
2022-12-11T00:24:00.998Z,0.90
2022-12-11T00:26:31.399Z,0.60
2022-12-11T00:29:00.798Z,0.93
2022-12-11T00:31:32.381Z,0.63
2022-12-11T00:34:03.736Z,1.00
2022-12-11T00:36:34.064Z,1.03
2022-12-11T00:39:05.180Z,0.90
2022-12-11T00:41:37.554Z,0.77
2022-12-11T00:44:07.454Z,0.70
2022-12-11T00:46:39.796Z,0.70
2022-12-11T00:49:09.878Z,0.70
2022-12-11T00:51:40.419Z,1.20
2022-12-11T00:54:10.490Z,1.10
2022-12-11T00:56:40.738Z,0.83
2022-12-11T00:59:10.745Z,0.80
2022-12-11T01:01:44.735Z,1.00
2022-12-11T01:04:15.105Z,0.90
2022-12-11T01:06:44.929Z,1.00
2022-12-11T01:09:37.659Z,0.60
2022-12-11T01:12:10.524Z,0.80
2022-12-11T01:14:41.154Z,0.77
2022-12-11T01:17:12.194Z,1.00
2022-12-11T01:19:42.430Z,0.83
2022-12-11T01:22:12.872Z,1.00
2022-12-11T01:24:43.184Z,1.40
2022-12-11T01:27:14.658Z,1.20
2022-12-11T01:29:43.872Z,1.13
2022-12-11T01:32:15.558Z,0.80
2022-12-11T01:34:45.410Z,0.97
2022-12-11T01:37:15.409Z,1.00
2022-12-11T01:39:46.001Z,1.20
2022-12-11T01:42:19.443Z,1.00
2022-12-11T01:45:27.172Z,0.97
2022-12-11T01:48:04.351Z,0.90
2022-12-11T01:50:36.628Z,0.93
2022-12-11T01:53:09.483Z,3.27
2022-12-11T01:55:40.590Z,7.50
2022-12-11T01:58:12.704Z,10.43
2022-12-11T02:00:43.559Z,15.60
2022-12-11T02:03:15.345Z,11.13
2022-12-11T02:05:45.030Z,10.07
2022-12-11T02:08:15.868Z,5.00
2022-12-11T02:10:54.543Z,3.37
2022-12-11T02:13:31.180Z,4.53
2022-12-11T02:16:05.735Z,2.80
2022-12-11T02:18:41.001Z,2.00
2022-12-11T02:21:18.910Z,1.27
2022-12-11T02:24:15.460Z,1.43
2022-12-11T02:27:10.518Z,1.07
2022-12-11T02:29:47.633Z,0.80
2022-12-11T02:32:21.223Z,0.87
2022-12-11T02:34:57.559Z,0.90
2022-12-11T02:37:29.628Z,0.80
2022-12-11T02:40:00.055Z,0.70
2022-12-11T02:42:32.423Z,0.50
2022-12-11T02:45:06.443Z,0.80
2022-12-11T02:47:36.397Z,0.73
2022-12-11T02:50:11.538Z,0.70
2022-12-11T02:52:42.230Z,0.87
2022-12-11T02:55:13.904Z,0.80
2022-12-11T02:57:47.873Z,0.60
2022-12-11T03:00:19.858Z,0.87
2022-12-11T03:02:49.804Z,0.70
2022-12-11T03:05:19.958Z,0.60
2022-12-11T03:07:49.975Z,0.80
2022-12-11T03:10:20.571Z,1.00
2022-12-11T03:12:53.824Z,0.50
2022-12-11T03:15:30.882Z,0.70
2022-12-11T03:18:05.695Z,0.70
2022-12-11T03:20:40.814Z,1.30
2022-12-11T03:23:21.680Z,0.40
2022-12-11T03:25:57.328Z,0.80
2022-12-11T03:28:30.942Z,0.67
2022-12-11T03:31:07.285Z,0.73
2022-12-11T03:33:39.453Z,0.50
2022-12-11T03:36:12.137Z,0.70
2022-12-11T03:38:45.781Z,0.87
2022-12-11T03:41:16.709Z,0.77
2022-12-11T03:43:47.296Z,0.77
2022-12-11T03:46:19.485Z,1.00
2022-12-11T03:48:50.859Z,0.50
2022-12-11T03:51:21.005Z,0.60
2022-12-11T03:53:51.235Z,0.87
2022-12-11T03:56:23.387Z,0.70
2022-12-11T03:58:52.998Z,0.87
2022-12-11T04:01:24.465Z,0.80
2022-12-11T04:03:55.233Z,0.70
2022-12-11T04:06:25.179Z,0.63
2022-12-11T04:08:54.423Z,0.63
2022-12-11T04:11:35.839Z,0.57
2022-12-11T04:14:24.709Z,0.77
2022-12-11T04:16:56.671Z,1.07
2022-12-11T04:19:41.885Z,0.80
2022-12-11T04:22:29.844Z,0.90
2022-12-11T04:25:02.198Z,0.83
2022-12-11T04:27:48.868Z,0.87
2022-12-11T04:30:21.739Z,0.73
2022-12-11T04:32:53.555Z,1.00
2022-12-11T04:35:24.658Z,1.20
2022-12-11T04:37:57.402Z,0.73
2022-12-11T04:40:27.798Z,0.93
2022-12-11T04:42:57.263Z,0.73
2022-12-11T04:45:27.121Z,0.93
2022-12-11T04:47:58.064Z,0.80
2022-12-11T04:50:28.093Z,0.60
2022-12-11T04:52:58.358Z,0.90
2022-12-11T04:55:28.413Z,0.80
2022-12-11T04:57:58.593Z,1.00
2022-12-11T05:00:28.994Z,1.00
2022-12-11T05:03:00.486Z,1.07
2022-12-11T05:05:30.172Z,1.00
2022-12-11T05:07:59.854Z,1.33
2022-12-11T05:10:29.488Z,1.10
2022-12-11T05:12:59.122Z,1.30
2022-12-11T05:15:28.874Z,1.60
2022-12-11T05:18:00.076Z,1.27
2022-12-11T05:20:32.868Z,0.83
2022-12-11T05:23:05.291Z,1.33
2022-12-11T05:25:35.383Z,1.40
2022-12-11T05:28:05.036Z,1.50
2022-12-11T05:30:35.348Z,1.53
2022-12-11T05:33:06.640Z,1.13
2022-12-11T05:35:36.403Z,1.17
2022-12-11T05:38:06.294Z,1.33
2022-12-11T05:40:35.968Z,0.60
2022-12-11T05:43:05.638Z,1.27
2022-12-11T05:45:35.504Z,1.10
2022-12-11T05:48:07.383Z,0.90
2022-12-11T05:50:37.860Z,1.10
2022-12-11T05:53:08.005Z,1.10
2022-12-11T05:55:38.179Z,1.23
2022-12-11T05:58:08.223Z,0.90
2022-12-11T06:00:38.323Z,1.17
2022-12-11T06:03:09.718Z,1.23
2022-12-11T06:05:40.524Z,0.80
2022-12-11T06:08:10.861Z,1.20
2022-12-11T06:10:40.648Z,1.03
2022-12-11T06:13:10.288Z,1.20
2022-12-11T06:15:39.640Z,1.27
2022-12-11T06:18:12.100Z,1.10
2022-12-11T06:20:42.559Z,0.90
2022-12-11T06:23:12.759Z,1.00
2022-12-11T06:25:42.711Z,0.90
2022-12-11T06:28:12.934Z,1.23
2022-12-11T06:30:42.811Z,0.80
2022-12-11T06:33:14.232Z,0.93
2022-12-11T06:35:43.853Z,1.40
2022-12-11T06:38:13.672Z,0.70
2022-12-11T06:40:43.219Z,1.03
2022-12-11T06:43:13.235Z,1.07
2022-12-11T06:45:43.377Z,1.33
2022-12-11T06:48:14.938Z,0.83
2022-12-11T06:50:44.553Z,1.47
2022-12-11T06:53:15.289Z,1.10
2022-12-11T06:55:45.663Z,1.37
2022-12-11T06:58:15.384Z,1.37
2022-12-11T07:00:45.581Z,1.40
2022-12-11T07:03:16.738Z,1.40
2022-12-11T07:05:46.886Z,1.50
2022-12-11T07:08:19.060Z,1.47
2022-12-11T07:10:49.294Z,1.97
2022-12-11T07:13:19.639Z,1.50
2022-12-11T07:15:49.749Z,1.37
2022-12-11T07:18:20.773Z,1.30
2022-12-11T07:20:51.133Z,1.60
2022-12-11T07:23:21.212Z,1.60
2022-12-11T07:25:50.935Z,1.53
2022-12-11T07:28:20.920Z,1.97
2022-12-11T07:30:51.276Z,1.40
2022-12-11T07:33:22.512Z,1.60
2022-12-11T07:35:52.239Z,1.50
2022-12-11T07:38:21.649Z,1.53
2022-12-11T07:40:51.429Z,2.00
2022-12-11T07:43:21.239Z,1.60
2022-12-11T07:45:51.034Z,1.60
2022-12-11T07:48:22.260Z,1.60
2022-12-11T07:50:52.444Z,2.00
2022-12-11T07:53:22.469Z,1.70
2022-12-11T07:55:53.224Z,2.80
2022-12-11T07:58:24.108Z,2.53
2022-12-11T08:00:54.254Z,1.90
2022-12-11T08:03:26.322Z,2.10
2022-12-11T08:05:56.099Z,2.40
2022-12-11T08:08:26.089Z,2.77
2022-12-11T08:10:56.029Z,1.63
2022-12-11T08:13:26.029Z,1.90
2022-12-11T08:15:56.143Z,2.60
2022-12-11T08:18:28.168Z,3.17
2022-12-11T08:20:58.008Z,2.10
2022-12-11T08:23:27.983Z,2.10
2022-12-11T08:25:57.520Z,2.20
2022-12-11T08:28:27.440Z,2.83
2022-12-11T08:30:57.607Z,2.63
2022-12-11T08:33:28.827Z,2.63
2022-12-11T08:35:58.773Z,2.13
2022-12-11T08:38:28.918Z,2.40
2022-12-11T08:40:58.859Z,3.20
2022-12-11T08:43:29.704Z,2.13
2022-12-11T08:45:59.815Z,2.37
2022-12-11T08:48:31.427Z,2.40
2022-12-11T08:51:03.208Z,2.37
2022-12-11T08:53:34.359Z,2.00
2022-12-11T08:56:05.126Z,2.20
2022-12-11T08:58:35.125Z,2.60
2022-12-11T09:01:10.606Z,2.30
2022-12-11T09:03:42.758Z,2.73
2022-12-11T09:06:14.933Z,2.60
2022-12-11T09:08:51.946Z,2.43
2022-12-11T09:11:24.739Z,1.57
2022-12-11T09:13:55.663Z,2.50
2022-12-11T09:16:27.524Z,1.80
2022-12-11T09:19:00.153Z,2.10
2022-12-11T09:21:31.840Z,2.50
2022-12-11T09:24:02.634Z,1.77
2022-12-11T09:26:35.308Z,1.90
2022-12-11T09:29:06.375Z,1.90
2022-12-11T09:31:37.788Z,2.37
2022-12-11T09:34:11.867Z,1.80
2022-12-11T09:36:44.493Z,2.13
2022-12-11T09:39:17.900Z,2.57
2022-12-11T09:41:53.173Z,2.43
2022-12-11T09:44:42.373Z,2.00
2022-12-11T09:47:22.558Z,1.80
2022-12-11T09:50:00.315Z,1.60
2022-12-11T09:52:36.144Z,2.10
2022-12-11T09:55:12.153Z,2.17
2022-12-11T09:57:48.876Z,1.73
2022-12-11T10:00:26.135Z,1.70
2022-12-11T10:03:21.558Z,2.00
2022-12-11T10:06:04.190Z,2.30
2022-12-11T10:08:40.653Z,1.90
2022-12-11T10:11:28.611Z,1.90
2022-12-11T10:14:07.805Z,2.67
2022-12-11T10:16:40.974Z,2.23
2022-12-11T10:19:17.073Z,2.50
2022-12-11T10:21:49.264Z,2.63
2022-12-11T10:24:57.513Z,2.20
2022-12-11T10:27:20.394Z,1.97
2022-12-11T10:29:50.455Z,1.87
2022-12-11T10:32:27.000Z,2.13
2022-12-11T10:35:01.031Z,2.00
2022-12-11T10:37:32.262Z,1.90
2022-12-11T10:40:01.876Z,2.30
2022-12-11T10:42:31.563Z,2.10
2022-12-11T10:45:05.174Z,1.80
2022-12-11T10:47:34.858Z,2.47
2022-12-11T10:50:07.101Z,2.53
2022-12-11T10:52:44.674Z,1.83
2022-12-11T10:55:22.779Z,2.43
2022-12-11T10:58:01.519Z,2.43
2022-12-11T11:00:36.728Z,2.07
2022-12-11T11:03:20.520Z,2.67
2022-12-11T11:05:50.874Z,2.30
2022-12-11T11:08:24.552Z,2.00
2022-12-11T11:10:57.128Z,3.23
2022-12-11T11:13:28.334Z,2.57
2022-12-11T11:16:05.742Z,2.40
2022-12-11T11:18:36.506Z,2.53
2022-12-11T11:21:06.579Z,2.30
2022-12-11T11:23:44.296Z,2.70
2022-12-11T11:26:16.038Z,2.00
2022-12-11T11:28:51.415Z,2.43
2022-12-11T11:31:21.879Z,2.50
2022-12-11T11:33:57.652Z,2.47
2022-12-11T11:36:29.648Z,2.30
2022-12-11T11:39:19.795Z,2.80
2022-12-11T11:41:54.255Z,2.00
2022-12-11T11:44:27.249Z,3.63
2022-12-11T11:47:00.914Z,2.77
2022-12-11T11:49:45.953Z,1.83
2022-12-11T11:52:19.638Z,2.37
2022-12-11T11:54:55.155Z,2.30
2022-12-11T11:57:31.068Z,2.67
2022-12-11T12:00:10.109Z,2.20
2022-12-11T12:02:40.300Z,2.60
2022-12-11T12:05:14.071Z,3.30
2022-12-11T12:07:50.093Z,2.60
2022-12-11T12:10:27.250Z,2.30
2022-12-11T12:13:02.524Z,2.00
2022-12-11T12:15:38.195Z,2.30
2022-12-11T12:18:15.747Z,1.83
2022-12-11T12:20:48.700Z,2.17
2022-12-11T12:23:37.467Z,2.13
2022-12-11T12:26:16.094Z,2.57
2022-12-11T12:28:54.239Z,2.37
2022-12-11T12:31:39.447Z,3.13
2022-12-11T12:34:15.562Z,2.60
2022-12-11T12:36:51.425Z,2.53
2022-12-11T12:39:27.808Z,1.90
2022-12-11T12:42:07.517Z,2.07
2022-12-11T12:44:44.878Z,2.37
2022-12-11T12:47:17.479Z,2.67
2022-12-11T12:49:49.364Z,3.17
2022-12-11T12:52:21.023Z,2.50
2022-12-11T12:55:12.601Z,1.93
2022-12-11T12:57:46.734Z,2.33
2022-12-11T13:00:33.342Z,2.00
2022-12-11T13:03:13.037Z,2.20
2022-12-11T13:05:45.633Z,2.03
2022-12-11T13:08:15.239Z,2.30
2022-12-11T13:10:45.889Z,2.47
2022-12-11T13:13:35.553Z,2.73
2022-12-11T13:16:11.301Z,2.37
2022-12-11T13:18:42.024Z,2.30
2022-12-11T13:21:29.818Z,2.03
2022-12-11T13:24:17.564Z,1.63
2022-12-11T13:26:47.323Z,2.20
2022-12-11T13:29:37.518Z,2.00
2022-12-11T13:32:23.345Z,2.20
2022-12-11T13:34:56.783Z,1.80
2022-12-11T13:37:30.165Z,2.20
2022-12-11T13:40:01.023Z,2.20
2022-12-11T13:42:35.145Z,1.73
2022-12-11T13:45:07.028Z,2.30
2022-12-11T13:47:38.253Z,2.33
2022-12-11T13:50:18.043Z,2.40
2022-12-11T13:52:55.583Z,2.00
2022-12-11T13:55:27.705Z,2.17
2022-12-11T13:57:57.129Z,2.57
2022-12-11T14:00:32.870Z,2.13
2022-12-11T14:03:07.604Z,2.10
2022-12-11T14:05:37.688Z,2.27
2022-12-11T14:08:10.779Z,2.20
2022-12-11T14:10:41.513Z,1.50
2022-12-11T14:13:18.564Z,2.53
2022-12-11T14:15:50.260Z,2.13
2022-12-11T14:18:23.663Z,2.70
2022-12-11T14:20:58.465Z,2.43
2022-12-11T14:23:30.299Z,2.17
2022-12-11T14:26:01.984Z,2.13
2022-12-11T14:28:38.394Z,2.27
2022-12-11T14:31:11.503Z,1.97
2022-12-11T14:33:46.653Z,1.73
2022-12-11T14:36:16.863Z,1.87
2022-12-11T14:38:50.543Z,1.60
2022-12-11T14:41:25.708Z,2.23
2022-12-11T14:43:58.673Z,1.93
2022-12-11T14:46:37.473Z,2.23
2022-12-11T14:49:17.973Z,2.20
2022-12-11T14:51:48.258Z,2.10
2022-12-11T14:54:23.776Z,1.67
2022-12-11T14:56:53.801Z,1.70
2022-12-11T14:59:31.643Z,2.33
2022-12-11T15:02:25.524Z,2.10
2022-12-11T15:05:13.678Z,1.87
2022-12-11T15:07:45.216Z,2.60
2022-12-11T15:10:26.055Z,1.87
2022-12-11T15:12:57.154Z,1.50
2022-12-11T15:15:26.889Z,2.00
2022-12-11T15:17:58.803Z,1.80
2022-12-11T15:20:31.114Z,1.53
2022-12-11T15:23:03.698Z,1.90
2022-12-11T15:25:33.485Z,2.90
2022-12-11T15:28:04.058Z,1.97
2022-12-11T15:30:36.234Z,1.67
2022-12-11T15:33:23.459Z,1.90
2022-12-11T15:36:21.369Z,2.27
2022-12-11T15:38:51.233Z,1.77
2022-12-11T15:41:26.759Z,1.93
2022-12-11T15:43:59.077Z,2.30
2022-12-11T15:46:30.349Z,2.10
2022-12-11T15:49:02.713Z,2.70
2022-12-11T15:51:32.746Z,2.40
2022-12-11T15:54:02.824Z,2.60
2022-12-11T15:56:33.280Z,2.57
2022-12-11T15:59:08.215Z,3.07
2022-12-11T16:01:37.694Z,2.87
2022-12-11T16:04:09.259Z,2.67
2022-12-11T16:06:45.322Z,2.97
2022-12-11T16:09:16.829Z,2.30
2022-12-11T16:11:46.754Z,2.03
2022-12-11T16:14:16.395Z,2.10
2022-12-11T16:16:46.138Z,2.63
2022-12-11T16:19:19.179Z,2.60
2022-12-11T16:21:48.890Z,2.80
2022-12-11T16:24:20.051Z,2.23
2022-12-11T16:26:49.800Z,2.90
2022-12-11T16:29:20.459Z,2.87
2022-12-11T16:31:50.198Z,2.37
2022-12-11T16:34:27.035Z,2.70
2022-12-11T16:36:59.774Z,2.90
2022-12-11T16:39:30.295Z,3.97
2022-12-11T16:41:59.799Z,2.23
2022-12-11T16:44:29.592Z,2.57
2022-12-11T16:47:00.553Z,2.53
2022-12-11T16:49:33.470Z,2.67
2022-12-11T16:52:04.258Z,2.30
2022-12-11T16:54:34.079Z,2.83
2022-12-11T16:57:03.661Z,2.87
2022-12-11T16:59:37.398Z,2.70
2022-12-11T17:02:09.162Z,3.07
2022-12-11T17:04:42.289Z,2.90
2022-12-11T17:07:13.134Z,2.87
2022-12-11T17:09:43.960Z,2.63
2022-12-11T17:12:16.599Z,2.97
2022-12-11T17:14:47.063Z,3.17
2022-12-11T17:17:16.985Z,2.63
2022-12-11T17:19:50.015Z,2.40
2022-12-11T17:22:19.930Z,2.77
2022-12-11T17:24:51.982Z,2.40
2022-12-11T17:27:21.795Z,3.23
2022-12-11T17:29:51.927Z,2.50
2022-12-11T17:32:22.495Z,3.40
2022-12-11T17:34:54.879Z,2.90
2022-12-11T17:37:25.309Z,2.90
2022-12-11T17:39:55.532Z,2.10
2022-12-11T17:42:25.599Z,2.90
2022-12-11T17:44:56.394Z,2.90
2022-12-11T17:47:26.210Z,3.03
2022-12-11T17:49:58.043Z,2.73
2022-12-11T17:52:34.095Z,2.53
2022-12-11T17:55:05.382Z,2.27
2022-12-11T17:57:38.638Z,3.10
2022-12-11T18:00:10.869Z,2.87
2022-12-11T18:02:40.299Z,3.00
2022-12-11T18:05:12.774Z,3.43
2022-12-11T18:07:43.240Z,2.50
2022-12-11T18:10:13.535Z,3.27
2022-12-11T18:12:43.268Z,3.00
2022-12-11T18:15:14.225Z,2.73
2022-12-11T18:17:46.549Z,3.30
2022-12-11T18:20:19.354Z,2.70
2022-12-11T18:22:48.958Z,2.80
2022-12-11T18:25:18.896Z,2.63
2022-12-11T18:27:58.203Z,2.70
2022-12-11T18:30:33.776Z,3.00
2022-12-11T18:33:18.609Z,2.73
2022-12-11T18:35:54.548Z,3.00
2022-12-11T18:38:25.194Z,2.33
2022-12-11T18:40:57.823Z,2.30
2022-12-11T18:43:29.021Z,2.77
2022-12-11T18:46:00.231Z,3.20
2022-12-11T18:48:35.847Z,2.80
2022-12-11T18:51:12.899Z,2.60
2022-12-11T18:53:43.267Z,3.00
2022-12-11T18:56:15.583Z,2.70
2022-12-11T18:58:46.921Z,2.63
2022-12-11T19:01:20.810Z,3.03
2022-12-11T19:03:54.475Z,3.00
2022-12-11T19:06:31.158Z,2.77
2022-12-11T19:09:01.759Z,3.20
2022-12-11T19:11:33.655Z,2.37
2022-12-11T19:14:05.918Z,2.80
2022-12-11T19:16:37.559Z,2.83
2022-12-11T19:19:10.150Z,3.87
2022-12-11T19:21:42.836Z,3.30
2022-12-11T19:24:16.111Z,2.60
2022-12-11T19:26:46.328Z,3.07
2022-12-11T19:29:22.336Z,3.53
2022-12-11T19:31:54.735Z,4.00
2022-12-11T19:34:25.003Z,2.87
2022-12-11T19:36:57.518Z,3.13
2022-12-11T19:39:27.341Z,3.67
2022-12-11T19:41:57.038Z,2.90
2022-12-11T19:44:27.399Z,2.60
2022-12-11T19:46:57.398Z,2.33
2022-12-11T19:49:27.293Z,2.93
2022-12-11T19:51:59.879Z,3.13
2022-12-11T19:54:29.962Z,2.63
2022-12-11T19:57:00.249Z,3.27
2022-12-11T19:59:30.424Z,3.70
2022-12-11T20:02:00.195Z,2.90
2022-12-11T20:04:30.504Z,2.53
2022-12-11T20:07:04.466Z,2.60
2022-12-11T20:09:35.691Z,2.97
2022-12-11T20:12:09.079Z,3.57
2022-12-11T20:14:40.772Z,3.47
2022-12-11T20:17:14.739Z,3.40
2022-12-11T20:19:45.179Z,2.47
2022-12-11T20:22:16.929Z,2.97
2022-12-11T20:24:49.479Z,2.77
2022-12-11T20:27:19.704Z,2.97
2022-12-11T20:29:49.260Z,3.03
2022-12-11T20:32:19.138Z,3.10
2022-12-11T20:34:49.504Z,2.90
2022-12-11T20:37:20.824Z,2.93
2022-12-11T20:39:50.590Z,2.73
2022-12-11T20:42:20.484Z,3.03
2022-12-11T20:44:51.695Z,3.00
2022-12-11T20:47:22.629Z,2.93
2022-12-11T20:49:53.229Z,3.33
2022-12-11T20:52:25.934Z,4.27
2022-12-11T20:54:55.664Z,2.97
2022-12-11T20:57:25.529Z,2.87
2022-12-11T20:59:55.573Z,2.57
2022-12-11T21:02:31.298Z,2.67
2022-12-11T21:05:00.869Z,3.00
2022-12-11T21:07:32.098Z,3.13
2022-12-11T21:10:02.037Z,3.67
2022-12-11T21:12:32.088Z,2.70
2022-12-11T21:15:01.830Z,3.10
2022-12-11T21:17:32.277Z,2.87
2022-12-11T21:20:02.508Z,3.50
2022-12-11T21:22:35.706Z,2.70
2022-12-11T21:25:07.003Z,2.90
2022-12-11T21:27:37.005Z,3.13
2022-12-11T21:30:09.150Z,4.30
2022-12-11T21:32:39.778Z,5.10
2022-12-11T21:35:09.926Z,6.00
2022-12-11T21:37:42.062Z,7.53
2022-12-11T21:40:13.823Z,6.77
2022-12-11T21:42:43.512Z,8.00
2022-12-11T21:45:52.079Z,6.07
2022-12-11T21:48:04.999Z,7.37
2022-12-11T21:50:34.658Z,7.57
2022-12-11T21:53:06.102Z,6.73
2022-12-11T21:55:36.598Z,7.23
2022-12-11T21:58:06.424Z,7.03
2022-12-11T22:00:38.723Z,6.60
2022-12-11T22:03:08.989Z,6.90
2022-12-11T22:05:39.366Z,7.70
2022-12-11T22:08:12.091Z,9.00
2022-12-11T22:10:42.278Z,7.33
2022-12-11T22:13:12.544Z,7.97
2022-12-11T22:15:42.874Z,7.93
2022-12-11T22:18:13.279Z,7.63
2022-12-11T22:20:43.333Z,8.00
2022-12-11T22:23:15.764Z,7.83
2022-12-11T22:25:45.584Z,8.07
2022-12-11T22:28:15.699Z,10.27
2022-12-11T22:30:46.281Z,7.63
2022-12-11T22:33:16.028Z,6.43
2022-12-11T22:35:47.158Z,6.40
2022-12-11T22:38:18.403Z,5.90
2022-12-11T22:40:48.632Z,6.13
2022-12-11T22:43:18.747Z,7.20
2022-12-11T22:45:50.378Z,6.13
2022-12-11T22:48:20.412Z,6.60
2022-12-11T22:50:50.613Z,7.27
2022-12-11T22:53:23.212Z,6.83
2022-12-11T22:55:52.973Z,7.00
2022-12-11T22:58:23.733Z,6.63
2022-12-11T23:00:53.812Z,7.80
2022-12-11T23:03:24.880Z,6.77
2022-12-11T23:05:55.098Z,7.90
2022-12-11T23:08:27.077Z,7.10
2022-12-11T23:10:57.273Z,7.97
2022-12-11T23:13:28.508Z,7.80
2022-12-11T23:16:00.397Z,7.73
2022-12-11T23:18:30.602Z,7.60
2022-12-11T23:21:00.513Z,7.13
2022-12-11T23:23:32.212Z,7.50
2022-12-11T23:26:02.162Z,6.57
2022-12-11T23:28:31.893Z,7.40
2022-12-11T23:31:01.813Z,6.73
2022-12-11T23:33:31.773Z,7.67
2022-12-11T23:36:02.343Z,7.23
2022-12-11T23:38:34.702Z,7.90
2022-12-11T23:41:06.228Z,6.60
2022-12-11T23:43:37.693Z,6.90
2022-12-11T23:46:12.591Z,7.77
2022-12-11T23:48:43.098Z,7.57
2022-12-11T23:51:15.640Z,7.43
2022-12-11T23:53:47.133Z,6.77
2022-12-11T23:56:20.117Z,7.13
2022-12-11T23:58:49.718Z,6.63
